Zhanyi, China
Current Conditions -  °F | °C
As of 5:00 AM on Tuesday 25 Nov 2014 (Local Time) from ZPPP Reporting Station
Clear Clear  
Wind Chill: 38°   Ceiling: Unl
Heat Index: 41°   Visibility: 6mi
Dew Point: 39°   Wind: 4mph
Humidity: 93%   Direction: 210°SSW
Pressure: 30.12"   Gusts: NA
Location:  25.58°N, 103.83°E
Report Text: ZPPP 242100Z 21002MPS CAVOK 05/04 Q1020 NOSIG
Loading
Personal Weather Stations






























Interactive Weather Map New forecast layout! Learn more

10-Day Weather Forecast

Advertisements
Track Severe Weather on mobile